createdAt,value
2018-09-10T00:00:32.197Z,0
2018-09-10T00:01:32.315Z,0
2018-09-10T00:02:34.599Z,0
2018-09-10T00:03:32.224Z,0
2018-09-10T00:04:32.238Z,0
2018-09-10T00:05:32.264Z,0
2018-09-10T00:06:32.270Z,0
2018-09-10T00:07:32.630Z,0
2018-09-10T00:08:32.890Z,0
2018-09-10T00:09:32.581Z,0
2018-09-10T00:10:32.210Z,0
2018-09-10T00:11:32.291Z,0
2018-09-10T00:12:32.277Z,0
2018-09-10T00:13:32.259Z,0
2018-09-10T00:14:34.463Z,0
2018-09-10T00:15:32.318Z,0
2018-09-10T00:16:32.276Z,0
2018-09-10T00:17:32.289Z,0
2018-09-10T00:18:32.287Z,0
2018-09-10T00:19:32.259Z,0
2018-09-10T00:20:32.611Z,0
2018-09-10T00:21:32.894Z,0
2018-09-10T00:22:32.312Z,0
2018-09-10T00:23:32.300Z,0
2018-09-10T00:24:32.232Z,0
2018-09-10T00:25:32.259Z,0
2018-09-10T00:26:32.561Z,0
2018-09-10T00:27:32.329Z,0
2018-09-10T00:29:07.061Z,0
2018-09-10T00:29:32.378Z,0
2018-09-10T00:30:32.269Z,0
2018-09-10T00:31:32.267Z,0
2018-09-10T00:32:33.023Z,0
2018-09-10T00:33:32.312Z,0
2018-09-10T00:34:32.360Z,0
2018-09-10T00:35:32.300Z,0
2018-09-10T00:36:32.298Z,0
2018-09-10T00:37:32.388Z,0
2018-09-10T00:38:33.642Z,0
2018-09-10T00:39:32.299Z,0
2018-09-10T00:40:32.319Z,0
2018-09-10T00:41:32.311Z,0
2018-09-10T00:42:32.716Z,0
2018-09-10T00:43:32.363Z,0
2018-09-10T00:44:32.605Z,0
2018-09-10T00:45:32.331Z,0
2018-09-10T00:46:32.281Z,0
2018-09-10T00:47:32.409Z,0
2018-09-10T00:48:32.349Z,0
2018-09-10T00:49:32.322Z,0
2018-09-10T00:50:37.280Z,0
2018-09-10T00:51:32.336Z,0
2018-09-10T00:52:32.321Z,0
2018-09-10T00:53:32.348Z,0
2018-09-10T00:54:32.724Z,0
2018-09-10T00:55:32.328Z,0
2018-09-10T00:56:32.713Z,0
2018-09-10T00:57:32.617Z,0
2018-09-10T00:58:32.721Z,0
2018-09-10T00:59:32.365Z,0
2018-09-10T01:00:32.406Z,0
2018-09-10T01:01:32.563Z,0
2018-09-10T01:02:33.234Z,0
2018-09-10T01:03:32.409Z,0
2018-09-10T01:04:32.399Z,0
2018-09-10T01:05:32.460Z,0
2018-09-10T01:06:32.359Z,0
2018-09-10T01:07:32.395Z,0
2018-09-10T01:08:34.726Z,0
2018-09-10T01:09:32.409Z,0
2018-09-10T01:10:32.353Z,0
2018-09-10T01:11:32.359Z,0
2018-09-10T01:12:32.331Z,0
2018-09-10T01:13:32.350Z,0
2018-09-10T01:14:32.729Z,0
2018-09-10T01:15:32.390Z,0
2018-09-10T01:16:32.695Z,0
2018-09-10T01:17:32.376Z,0
2018-09-10T01:18:32.376Z,0
2018-09-10T01:19:32.382Z,0
2018-09-10T01:20:32.745Z,0
2018-09-10T01:21:32.393Z,0
2018-09-10T01:22:32.323Z,0
2018-09-10T01:23:32.375Z,0
2018-09-10T01:24:32.451Z,0
2018-09-10T01:25:32.388Z,0
2018-09-10T01:26:32.861Z,0
2018-09-10T01:27:32.704Z,0
2018-09-10T01:28:32.342Z,0
2018-09-10T01:29:32.386Z,0
2018-09-10T01:30:32.395Z,0
2018-09-10T01:31:32.425Z,0
2018-09-10T01:32:32.841Z,0
2018-09-10T01:33:32.396Z,0
2018-09-10T01:34:32.381Z,0
2018-09-10T01:35:32.375Z,0
2018-09-10T01:36:32.427Z,0
2018-09-10T01:37:32.403Z,0
2018-09-10T01:38:32.680Z,0
2018-09-10T01:39:32.335Z,0
2018-09-10T01:40:32.446Z,0
2018-09-10T01:41:32.388Z,0
2018-09-10T01:42:32.407Z,0
2018-09-10T01:43:32.364Z,0
2018-09-10T01:44:33.945Z,0
2018-09-10T01:45:32.420Z,0
2018-09-10T01:46:32.452Z,0
2018-09-10T01:47:32.455Z,0
2018-09-10T01:48:32.464Z,0
2018-09-10T01:49:32.438Z,0
2018-09-10T01:50:32.753Z,0
2018-09-10T01:51:32.496Z,0
2018-09-10T01:52:32.521Z,0
2018-09-10T01:53:32.508Z,0
2018-09-10T01:54:32.477Z,0
2018-09-10T01:55:32.438Z,0
2018-09-10T01:56:32.785Z,0
2018-09-10T01:57:32.435Z,0
2018-09-10T01:58:32.788Z,0
2018-09-10T01:59:32.877Z,0
2018-09-10T02:00:32.472Z,0
2018-09-10T02:01:32.429Z,0
2018-09-10T02:02:32.722Z,0
2018-09-10T02:03:32.387Z,0
2018-09-10T02:04:32.425Z,0
2018-09-10T02:05:32.417Z,0
2018-09-10T02:06:32.410Z,0
2018-09-10T02:07:32.439Z,0
2018-09-10T02:08:37.141Z,0
2018-09-10T02:09:32.551Z,0
2018-09-10T02:10:32.551Z,0
2018-09-10T02:11:32.407Z,0
2018-09-10T02:12:32.466Z,0
2018-09-10T02:13:32.430Z,0
2018-09-10T02:14:32.835Z,0
2018-09-10T02:15:32.615Z,0
2018-09-10T02:16:38.081Z,0
2018-09-10T02:17:35.460Z,0
2018-09-10T02:18:32.594Z,0
2018-09-10T02:19:32.504Z,0
2018-09-10T02:20:33.025Z,0
2018-09-10T02:21:32.441Z,0
2018-09-10T02:22:32.442Z,0
2018-09-10T02:23:32.540Z,0
2018-09-10T02:24:32.445Z,0
2018-09-10T02:25:32.444Z,0
2018-09-10T02:26:36.980Z,0
2018-09-10T02:27:32.773Z,0
2018-09-10T02:28:32.524Z,0
2018-09-10T02:29:32.492Z,0
2018-09-10T02:30:32.528Z,0
2018-09-10T02:31:32.448Z,0
2018-09-10T02:32:32.829Z,0
2018-09-10T02:33:32.464Z,0
2018-09-10T02:34:32.531Z,0
2018-09-10T02:35:32.513Z,0
2018-09-10T02:36:32.479Z,0
2018-09-10T02:37:32.496Z,0
2018-09-10T02:38:33.046Z,0
2018-09-10T02:39:32.505Z,0
2018-09-10T02:40:32.568Z,0
2018-09-10T02:41:32.484Z,0
2018-09-10T02:42:32.556Z,0
2018-09-10T02:43:32.481Z,0
2018-09-10T02:44:34.953Z,0
2018-09-10T02:45:32.464Z,0
2018-09-10T02:46:32.509Z,0
2018-09-10T02:47:32.545Z,0
2018-09-10T02:48:32.493Z,0
2018-09-10T02:49:32.558Z,0
2018-09-10T02:50:36.939Z,0
2018-09-10T02:51:32.572Z,0
2018-09-10T02:52:32.478Z,0
2018-09-10T02:53:32.543Z,0
2018-09-10T02:54:32.528Z,0
2018-09-10T02:55:32.535Z,0
2018-09-10T02:56:33.911Z,0
2018-09-10T02:57:32.537Z,0
2018-09-10T02:58:32.546Z,0
2018-09-10T02:59:32.531Z,0
2018-09-10T03:00:32.539Z,0
2018-09-10T03:01:32.580Z,0
2018-09-10T03:02:32.921Z,0
2018-09-10T03:03:32.510Z,0
2018-09-10T03:04:32.530Z,0
2018-09-10T03:05:32.595Z,0
2018-09-10T03:06:32.579Z,0
2018-09-10T03:07:32.578Z,0
2018-09-10T03:08:32.856Z,0
2018-09-10T03:09:32.630Z,0
2018-09-10T03:10:32.626Z,0
2018-09-10T03:11:32.633Z,0
2018-09-10T03:12:32.556Z,0
2018-09-10T03:13:32.789Z,0
2018-09-10T03:14:32.901Z,0
2018-09-10T03:15:32.596Z,0
2018-09-10T03:16:32.580Z,0
2018-09-10T03:17:32.849Z,0
2018-09-10T03:18:32.507Z,0
2018-09-10T03:19:32.583Z,0
2018-09-10T03:20:33.344Z,0
2018-09-10T03:21:32.967Z,0
2018-09-10T03:22:33.017Z,0
2018-09-10T03:23:32.609Z,0
2018-09-10T03:24:32.578Z,0
2018-09-10T03:25:32.619Z,0
2018-09-10T03:26:33.990Z,0
2018-09-10T03:27:32.568Z,0
2018-09-10T03:28:32.625Z,0
2018-09-10T03:29:32.621Z,0
2018-09-10T03:30:32.589Z,0
2018-09-10T03:31:32.658Z,0
2018-09-10T03:32:33.043Z,0
2018-09-10T03:33:32.751Z,0
2018-09-10T03:34:32.684Z,0
2018-09-10T03:35:32.647Z,0
2018-09-10T03:36:32.959Z,0
2018-09-10T03:37:32.955Z,0
2018-09-10T03:38:33.147Z,0
2018-09-10T03:39:32.619Z,0
2018-09-10T03:40:32.583Z,0
2018-09-10T03:41:33.219Z,0
2018-09-10T03:42:32.598Z,0
2018-09-10T03:43:32.571Z,0
2018-09-10T03:44:33.024Z,0
2018-09-10T03:45:32.531Z,0
2018-09-10T03:46:34.015Z,0
2018-09-10T03:48:32.564Z,0
2018-09-10T03:49:33.028Z,0
2018-09-10T03:50:33.375Z,0
2018-09-10T03:51:33.074Z,0
2018-09-10T03:52:33.093Z,0
2018-09-10T03:53:33.090Z,0
2018-09-10T03:54:32.721Z,0
2018-09-10T03:55:32.710Z,0
2018-09-10T03:56:32.994Z,0
2018-09-10T03:57:32.635Z,0
2018-09-10T03:58:32.646Z,0
2018-09-10T03:59:32.711Z,0
2018-09-10T04:00:32.693Z,0
2018-09-10T04:01:32.654Z,0
2018-09-10T04:02:34.092Z,0
2018-09-10T04:03:32.676Z,0
2018-09-10T04:04:32.646Z,0
2018-09-10T04:05:32.614Z,0
2018-09-10T04:06:32.620Z,0
2018-09-10T04:07:32.640Z,0
2018-09-10T04:08:33.049Z,0
2018-09-10T04:09:32.670Z,0
2018-09-10T04:21:16.363Z,0
2018-09-10T04:21:28.650Z,0
2018-09-10T04:22:28.577Z,0
2018-09-10T04:23:28.677Z,0
2018-09-10T04:24:28.818Z,0
2018-09-10T04:25:36.154Z,0
2018-09-10T04:26:35.889Z,0
2018-09-10T04:27:29.099Z,0
2018-09-10T04:28:28.764Z,0
2018-09-10T04:29:28.602Z,0
2018-09-10T04:30:28.640Z,0
2018-09-10T04:31:32.985Z,0
2018-09-10T04:32:28.660Z,0
2018-09-10T04:33:28.643Z,0
2018-09-10T04:34:28.664Z,0
2018-09-10T04:35:28.682Z,0
2018-09-10T04:36:28.841Z,0
2018-09-10T04:37:28.921Z,0
2018-09-10T04:38:28.639Z,0
2018-09-10T04:39:28.731Z,0
2018-09-10T04:40:28.652Z,0
2018-09-10T04:41:28.676Z,0
2018-09-10T04:42:28.871Z,0
2018-09-10T04:43:29.989Z,0
2018-09-10T04:44:28.593Z,0
2018-09-10T04:45:28.689Z,0
2018-09-10T04:46:28.645Z,0
2018-09-10T04:47:28.859Z,0
2018-09-10T04:48:28.631Z,0
2018-09-10T04:49:29.005Z,0
2018-09-10T04:50:28.648Z,0
2018-09-10T04:51:28.680Z,0
2018-09-10T04:52:29.056Z,0
2018-09-10T04:53:29.034Z,0
2018-09-10T04:54:28.760Z,0
2018-09-10T04:55:29.085Z,0
2018-09-10T04:56:28.849Z,0
2018-09-10T04:57:28.635Z,0
2018-09-10T04:58:28.763Z,0
2018-09-10T04:59:28.768Z,0
2018-09-10T05:00:28.708Z,0
2018-09-10T05:01:32.408Z,0
2018-09-10T05:02:28.799Z,0
2018-09-10T05:03:28.692Z,0
2018-09-10T05:04:28.862Z,0
2018-09-10T05:05:28.673Z,0
2018-09-10T05:06:28.677Z,0
2018-09-10T05:07:28.989Z,0
2018-09-10T05:08:28.684Z,0
2018-09-10T05:09:28.720Z,0
2018-09-10T05:10:28.749Z,0
2018-09-10T05:17:56.613Z,0
2018-09-10T05:18:08.933Z,0
2018-09-10T05:19:09.300Z,0
2018-09-10T05:20:09.047Z,0
2018-09-10T05:21:08.948Z,0
2018-09-10T05:22:09.323Z,0
2018-09-10T05:23:09.336Z,0
2018-09-10T05:24:08.922Z,0
2018-09-10T05:25:08.965Z,0
2018-09-10T05:26:09.173Z,0
2018-09-10T05:27:09.334Z,0
2018-09-10T05:28:09.121Z,0
2018-09-10T05:29:10.697Z,5
2018-09-10T05:30:13.263Z,5
2018-09-10T05:31:08.953Z,5
2018-09-10T05:32:09.805Z,5
2018-09-10T05:33:09.577Z,5
2018-09-10T05:34:08.996Z,5
2018-09-10T05:35:12.338Z,5
2018-09-10T05:36:09.143Z,5
2018-09-10T05:37:09.218Z,5
2018-09-10T05:38:08.966Z,5
2018-09-10T05:39:09.024Z,5
2018-09-10T05:40:09.421Z,5
2018-09-10T05:41:09.355Z,5
2018-09-10T05:42:09.003Z,5
2018-09-10T05:43:08.943Z,5
2018-09-10T05:44:09.040Z,5
2018-09-10T05:45:09.096Z,5
2018-09-10T05:46:08.961Z,5
2018-09-10T05:47:09.255Z,5
2018-09-10T05:48:08.927Z,5
2018-09-10T05:49:09.025Z,5
2018-09-10T05:50:09.057Z,5
2018-09-10T05:51:09.104Z,5
2018-09-10T05:52:09.110Z,5
2018-09-10T05:53:09.412Z,5
2018-09-10T05:54:08.923Z,5
2018-09-10T05:55:09.087Z,5
2018-09-10T05:56:08.972Z,5
2018-09-10T05:57:08.954Z,5
2018-09-10T05:58:08.974Z,5
2018-09-10T05:59:09.329Z,5
2018-09-10T06:00:11.291Z,5
2018-09-10T06:01:08.929Z,5
2018-09-10T06:02:08.950Z,30
2018-09-10T06:03:08.978Z,45
2018-09-10T06:04:09.162Z,20
2018-09-10T06:05:10.234Z,15
2018-09-10T06:06:09.209Z,10
2018-09-10T06:07:09.114Z,10
2018-09-10T06:08:08.941Z,10
2018-09-10T06:09:08.982Z,10
2018-09-10T06:10:08.887Z,10
2018-09-10T06:11:09.480Z,10
2018-09-10T06:12:08.948Z,10
2018-09-10T06:13:08.976Z,10
2018-09-10T06:14:08.942Z,15
2018-09-10T06:15:09.049Z,15
2018-09-10T06:16:09.416Z,15
2018-09-10T06:17:09.669Z,15
2018-09-10T06:18:08.972Z,20
2018-09-10T06:19:09.024Z,20
2018-09-10T06:20:09.121Z,35
2018-09-10T06:21:08.971Z,35
2018-09-10T06:22:08.959Z,35
2018-09-10T06:25:01.304Z,40
2018-09-10T06:25:13.587Z,40
2018-09-10T06:26:13.627Z,45
2018-09-10T06:27:13.623Z,45
2018-09-10T06:28:13.574Z,45
2018-09-10T06:29:13.651Z,50
2018-09-10T06:30:13.695Z,50
2018-09-10T06:31:13.881Z,50
2018-09-10T06:32:13.812Z,55
2018-09-10T06:33:13.711Z,50
2018-09-10T06:34:13.848Z,45
2018-09-10T06:35:14.017Z,40
2018-09-10T06:36:13.712Z,40
2018-09-10T06:37:13.766Z,45
2018-09-10T06:38:13.585Z,50
2018-09-10T06:39:14.275Z,55
2018-09-10T06:40:13.587Z,55
2018-09-10T06:41:13.563Z,60
2018-09-10T06:42:13.573Z,65
2018-09-10T06:43:13.584Z,65
2018-09-10T06:44:13.577Z,70
2018-09-10T06:45:13.702Z,75
2018-09-10T06:46:13.639Z,75
2018-09-10T06:47:13.569Z,80
2018-09-10T06:48:13.913Z,80
2018-09-10T06:49:13.614Z,85
2018-09-10T06:50:13.617Z,90
2018-09-10T06:51:13.629Z,95
2018-09-10T06:52:13.634Z,95
2018-09-10T06:53:13.645Z,95
2018-09-10T06:54:13.915Z,100
2018-09-10T06:55:13.666Z,105
2018-09-10T06:56:13.592Z,105
2018-09-10T06:57:13.555Z,110
2018-09-10T06:58:13.639Z,115
2018-09-10T06:59:13.923Z,120
2018-09-10T07:00:14.020Z,120
2018-09-10T07:01:13.602Z,125
2018-09-10T07:13:00.272Z,125
2018-09-10T07:13:12.789Z,140
2018-09-10T07:14:12.524Z,145
2018-09-10T07:15:12.557Z,140
2018-09-10T07:16:12.507Z,130
2018-09-10T07:17:12.852Z,165
2018-09-10T07:18:12.541Z,160
2018-09-10T07:19:12.681Z,160
2018-09-10T07:20:12.999Z,165
2018-09-10T07:21:12.562Z,170
2018-09-10T07:22:12.498Z,170
2018-09-10T07:23:13.748Z,165
2018-09-10T07:24:12.506Z,165
2018-09-10T07:25:12.581Z,175
2018-09-10T07:26:12.565Z,165
2018-09-10T07:27:12.514Z,170
2018-09-10T07:28:12.570Z,180
2018-09-10T07:29:13.873Z,185
2018-09-10T07:30:12.661Z,180
2018-09-10T07:31:12.658Z,165
2018-09-10T07:32:12.708Z,165
2018-09-10T07:33:12.664Z,165
2018-09-10T07:40:38.381Z,165
2018-09-10T07:40:50.667Z,140
2018-09-10T07:52:37.220Z,140
2018-09-10T07:52:49.504Z,125
2018-09-10T07:53:50.065Z,160
2018-09-10T07:54:49.676Z,160
2018-09-10T07:55:51.042Z,155
2018-09-10T07:57:19.189Z,150
2018-09-10T07:58:24.956Z,140
2018-09-10T07:59:03.602Z,145
2018-09-10T08:00:06.691Z,150
2018-09-10T08:00:59.352Z,145
2018-09-10T08:01:49.478Z,140
2018-09-10T08:02:49.829Z,135
2018-09-10T08:03:49.476Z,135
2018-09-10T08:05:00.062Z,130
2018-09-10T08:06:18.552Z,120
2018-09-10T08:07:14.280Z,120
2018-09-10T08:08:16.160Z,115
2018-09-10T08:09:18.273Z,115
2018-09-10T08:10:07.743Z,110
2018-09-10T08:11:08.251Z,110
2018-09-10T08:12:02.112Z,110
2018-09-10T08:13:00.954Z,105
2018-09-10T08:13:57.537Z,105
2018-09-10T08:23:30.105Z,75
2018-09-10T08:24:00.652Z,75
2018-09-10T08:24:56.492Z,75
2018-09-10T08:25:43.077Z,75
2018-09-10T08:26:49.132Z,75
2018-09-10T08:27:48.110Z,70
2018-09-10T08:28:42.479Z,70
2018-09-10T08:29:42.565Z,70
2018-09-10T08:30:48.148Z,65
2018-09-10T08:31:42.609Z,65
2018-09-10T08:32:42.439Z,65
2018-09-10T08:33:43.030Z,65
2018-09-10T08:34:42.598Z,65
2018-09-10T08:35:42.910Z,60
2018-09-10T08:36:42.501Z,60
2018-09-10T08:37:44.389Z,60
2018-09-10T08:38:43.175Z,60
2018-09-10T08:39:43.552Z,60
2018-09-10T08:40:42.538Z,60
2018-09-10T08:41:43.213Z,60
2018-09-10T08:42:44.396Z,60
2018-09-10T08:43:43.223Z,60
2018-09-10T08:44:42.562Z,60
2018-09-10T08:45:44.616Z,60
2018-09-10T08:46:44.841Z,60
2018-09-10T08:47:42.837Z,60
2018-09-10T08:48:42.740Z,60
2018-09-10T08:49:42.494Z,60
2018-09-10T08:50:42.514Z,60
2018-09-10T08:51:42.876Z,60
2018-09-10T08:52:42.542Z,60
2018-09-10T08:53:42.506Z,60
2018-09-10T08:54:42.984Z,60
2018-09-10T08:55:42.969Z,60
2018-09-10T08:56:42.519Z,60
2018-09-10T08:57:42.908Z,60
2018-09-10T08:58:42.508Z,60
2018-09-10T08:59:42.544Z,50
2018-09-10T09:00:42.591Z,60
2018-09-10T09:01:45.194Z,55
2018-09-10T09:02:42.545Z,55
2018-09-10T09:03:42.838Z,55
2018-09-10T09:04:42.557Z,60
2018-09-10T09:05:42.556Z,60
2018-09-10T09:06:42.605Z,55
2018-09-10T09:07:42.499Z,60
2018-09-10T09:08:42.535Z,60
2018-09-10T09:09:43.464Z,55
2018-09-10T09:12:49.866Z,55
2018-09-10T09:13:02.162Z,55
2018-09-10T09:18:19.142Z,60
2018-09-10T09:18:31.379Z,60
2018-09-10T09:19:31.436Z,60
2018-09-10T09:20:31.413Z,55
2018-09-10T09:21:31.352Z,60
2018-09-10T09:22:31.699Z,60
2018-09-10T09:23:31.516Z,60
2018-09-10T09:24:31.445Z,60
2018-09-10T09:25:31.450Z,55
2018-09-10T09:26:31.379Z,55
2018-09-10T09:27:31.371Z,60
2018-09-10T09:28:31.747Z,60
2018-09-10T09:29:31.454Z,60
2018-09-10T09:30:31.576Z,55
2018-09-10T09:31:31.453Z,50
2018-09-10T09:32:31.421Z,55
2018-09-10T09:33:31.369Z,60
2018-09-10T09:34:31.782Z,60
2018-09-10T09:35:31.425Z,60
2018-09-10T09:36:31.568Z,60
2018-09-10T09:37:31.453Z,60
2018-09-10T09:38:31.431Z,60
2018-09-10T09:39:31.370Z,60
2018-09-10T09:40:32.267Z,60
2018-09-10T09:41:31.791Z,50
2018-09-10T09:42:31.797Z,55
2018-09-10T09:43:31.629Z,55
2018-09-10T09:44:31.471Z,55
2018-09-10T09:45:31.500Z,55
2018-09-10T09:46:34.422Z,55
2018-09-10T09:47:31.489Z,55
2018-09-10T09:48:31.460Z,55
2018-09-10T09:49:31.447Z,55
2018-09-10T09:50:31.489Z,60
2018-09-10T09:51:31.483Z,55
2018-09-10T09:52:31.734Z,60
2018-09-10T09:53:31.470Z,60
2018-09-10T09:54:31.509Z,60
2018-09-10T09:55:31.455Z,60
2018-09-10T09:56:31.582Z,60
2018-09-10T09:57:31.463Z,60
2018-09-10T09:58:31.818Z,55
2018-09-10T09:59:31.696Z,60
2018-09-10T10:00:31.565Z,60
2018-09-10T10:01:31.491Z,60
2018-09-10T10:06:47.772Z,60
2018-09-10T10:07:00.013Z,60
2018-09-10T10:07:59.993Z,60
2018-09-10T10:09:00.073Z,60
2018-09-10T10:10:00.096Z,60
2018-09-10T10:11:01.415Z,60
2018-09-10T10:12:00.303Z,60
2018-09-10T10:13:00.032Z,60
2018-09-10T10:14:00.030Z,60
2018-09-10T10:15:00.026Z,60
2018-09-10T10:16:00.077Z,60
2018-09-10T10:17:00.087Z,60
2018-09-10T10:18:00.007Z,60
2018-09-10T10:19:00.160Z,60
2018-09-10T10:20:00.104Z,60
2018-09-10T10:21:00.105Z,60
2018-09-10T10:22:00.172Z,60
2018-09-10T10:23:01.515Z,60
2018-09-10T10:24:00.023Z,60
2018-09-10T10:25:00.091Z,60
2018-09-10T10:26:00.040Z,55
2018-09-10T10:27:00.107Z,55
2018-09-10T10:28:00.114Z,60
2018-09-10T10:29:00.438Z,55
2018-09-10T10:30:01.499Z,55
2018-09-10T10:31:00.094Z,40
2018-09-10T10:32:00.051Z,40
2018-09-10T10:33:00.113Z,40
2018-09-10T10:34:00.048Z,40
2018-09-10T10:35:00.392Z,40
2018-09-10T10:36:00.035Z,40
2018-09-10T10:37:00.085Z,40
2018-09-10T10:38:00.079Z,40
2018-09-10T10:39:00.079Z,40
2018-09-10T10:40:00.229Z,45
2018-09-10T10:41:00.795Z,45
2018-09-10T10:42:00.078Z,45
2018-09-10T10:43:00.174Z,50
2018-09-10T10:44:00.082Z,50
2018-09-10T10:45:00.105Z,45
2018-09-10T10:46:00.091Z,40
2018-09-10T10:47:00.551Z,40
2018-09-10T10:48:00.085Z,40
2018-09-10T10:49:00.093Z,45
2018-09-10T10:50:00.089Z,50
2018-09-10T10:51:00.210Z,50
2018-09-10T10:52:00.102Z,50
2018-09-10T10:53:00.480Z,50
2018-09-10T10:54:00.230Z,45
2018-09-10T10:55:00.090Z,50
2018-09-10T10:56:00.159Z,45
2018-09-10T10:57:00.061Z,45
2018-09-10T10:58:00.347Z,45
2018-09-10T10:59:00.463Z,45
2018-09-10T11:00:00.086Z,45
2018-09-10T11:01:00.164Z,45
2018-09-10T11:02:00.129Z,40
2018-09-10T11:03:00.141Z,40
2018-09-10T11:04:00.186Z,40
2018-09-10T11:05:00.154Z,40
2018-09-10T11:06:00.133Z,35
2018-09-10T11:07:00.099Z,35
2018-09-10T11:08:00.150Z,35
2018-09-10T11:09:00.177Z,35
2018-09-10T11:10:00.162Z,40
2018-09-10T11:11:00.473Z,40
2018-09-10T11:12:00.214Z,45
2018-09-10T11:13:00.179Z,45
2018-09-10T11:14:00.148Z,50
2018-09-10T11:15:00.171Z,50
2018-09-10T11:16:00.171Z,50
2018-09-10T11:17:00.507Z,55
2018-09-10T11:18:00.263Z,55
2018-09-10T11:19:00.196Z,55
2018-09-10T11:20:00.666Z,55
2018-09-10T11:21:00.182Z,60
2018-09-10T11:22:00.190Z,60
2018-09-10T11:23:00.493Z,60
2018-09-10T11:24:00.220Z,60
2018-09-10T11:25:00.161Z,60
2018-09-10T11:26:00.166Z,60
2018-09-10T11:27:00.199Z,40
2018-09-10T11:28:00.334Z,50
2018-09-10T11:29:01.545Z,40
2018-09-10T11:30:00.150Z,45
2018-09-10T11:31:00.217Z,35
2018-09-10T11:32:00.199Z,35
2018-09-10T11:33:00.177Z,65
2018-09-10T11:34:00.259Z,70
2018-09-10T11:35:00.522Z,70
2018-09-10T11:36:00.193Z,60
2018-09-10T11:37:00.228Z,60
2018-09-10T11:38:00.191Z,60
2018-09-10T11:39:00.200Z,65
2018-09-10T11:40:00.222Z,60
2018-09-10T11:41:00.561Z,60
2018-09-10T11:42:00.193Z,60
2018-09-10T11:43:00.403Z,65
2018-09-10T11:44:00.207Z,55
2018-09-10T11:45:00.405Z,65
2018-09-10T11:46:00.256Z,70
2018-09-10T11:47:00.611Z,70
2018-09-10T11:48:00.573Z,70
2018-09-10T11:49:00.313Z,75
2018-09-10T11:50:00.249Z,65
2018-09-10T11:51:00.283Z,40
2018-09-10T11:52:00.212Z,35
2018-09-10T11:53:00.550Z,40
2018-09-10T11:54:00.197Z,40
2018-09-10T11:55:00.272Z,50
2018-09-10T11:56:00.214Z,60
2018-09-10T11:57:00.299Z,60
2018-09-10T11:58:00.287Z,45
2018-09-10T11:59:05.195Z,70
2018-09-10T12:00:02.799Z,70
2018-09-10T12:01:02.866Z,55
2018-09-10T12:02:04.354Z,40
2018-09-10T12:03:02.793Z,35
2018-09-10T12:04:02.783Z,35
2018-09-10T12:05:03.263Z,60
2018-09-10T12:06:04.352Z,70
2018-09-10T12:07:03.582Z,55
2018-09-10T12:08:04.141Z,50
2018-09-10T12:09:03.354Z,40
2018-09-10T12:10:02.912Z,40
2018-09-10T12:11:03.197Z,40
2018-09-10T12:12:02.711Z,45
2018-09-10T12:13:02.010Z,50
2018-09-10T12:14:00.529Z,50
2018-09-10T12:15:00.300Z,65
2018-09-10T12:16:00.215Z,35
2018-09-10T12:17:00.556Z,55
2018-09-10T12:18:00.260Z,55
2018-09-10T12:19:00.395Z,40
2018-09-10T12:20:00.268Z,60
2018-09-10T12:21:00.277Z,60
2018-09-10T12:22:00.205Z,40
2018-09-10T12:23:00.562Z,55
2018-09-10T12:24:00.561Z,30
2018-09-10T12:25:00.362Z,25
2018-09-10T12:26:00.279Z,25
2018-09-10T12:27:00.323Z,45
2018-09-10T12:28:00.360Z,70
2018-09-10T12:29:00.603Z,50
2018-09-10T12:30:00.310Z,25
2018-09-10T12:31:00.276Z,25
2018-09-10T12:32:00.289Z,35
2018-09-10T12:33:00.286Z,45
2018-09-10T12:34:00.298Z,55
2018-09-10T12:35:00.601Z,40
2018-09-10T12:36:00.315Z,25
2018-09-10T12:37:00.301Z,25
2018-09-10T12:38:00.363Z,40
2018-09-10T12:39:00.294Z,45
2018-09-10T12:40:00.375Z,35
2018-09-10T12:41:00.683Z,40
2018-09-10T12:42:00.368Z,40
2018-09-10T12:43:00.385Z,45
2018-09-10T12:44:00.356Z,40
2018-09-10T12:45:00.412Z,30
2018-09-10T12:46:00.314Z,40
2018-09-10T12:47:00.694Z,25
2018-09-10T12:48:00.349Z,20
2018-09-10T12:49:00.336Z,35
2018-09-10T12:50:00.334Z,30
2018-09-10T12:51:00.397Z,35
2018-09-10T12:52:00.384Z,30
2018-09-10T12:53:00.815Z,25
2018-09-10T12:54:00.332Z,25
2018-09-10T12:55:00.316Z,35
2018-09-10T12:56:00.401Z,55
2018-09-10T12:57:00.420Z,60
2018-09-10T12:58:00.390Z,55
2018-09-10T12:59:01.930Z,45
2018-09-10T13:00:00.406Z,40
2018-09-10T13:01:00.327Z,40
2018-09-10T13:02:00.385Z,50
2018-09-10T13:03:00.335Z,45
2018-09-10T13:04:00.430Z,55
2018-09-10T13:05:00.722Z,50
2018-09-10T13:06:00.366Z,50
2018-09-10T13:07:00.395Z,50
2018-09-10T13:08:00.369Z,40
2018-09-10T13:09:00.386Z,40
2018-09-10T13:10:00.367Z,40
2018-09-10T13:11:04.517Z,55
2018-09-10T13:12:00.409Z,55
2018-09-10T13:13:00.414Z,30
2018-09-10T13:14:00.389Z,45
2018-09-10T13:15:00.402Z,45
2018-09-10T13:16:00.360Z,55
2018-09-10T13:17:04.238Z,50
2018-09-10T13:18:00.348Z,30
2018-09-10T13:19:00.405Z,30
2018-09-10T13:20:00.356Z,30
2018-09-10T13:21:00.802Z,40
2018-09-10T13:22:00.394Z,40
2018-09-10T13:23:00.689Z,40
2018-09-10T13:24:00.375Z,45
2018-09-10T13:25:00.386Z,55
2018-09-10T13:26:00.465Z,55
2018-09-10T13:27:00.366Z,40
2018-09-10T13:28:00.414Z,45
2018-09-10T13:29:00.756Z,60
2018-09-10T13:30:00.496Z,60
2018-09-10T13:31:00.399Z,60
2018-09-10T13:32:00.437Z,30
2018-09-10T13:33:00.404Z,45
2018-09-10T13:34:00.426Z,55
2018-09-10T13:35:00.837Z,50
2018-09-10T13:36:00.425Z,30
2018-09-10T13:37:00.466Z,35
2018-09-10T13:38:00.444Z,40
2018-09-10T13:39:00.544Z,55
2018-09-10T13:40:00.454Z,55
2018-09-10T13:41:00.857Z,55
2018-09-10T13:42:00.442Z,55
2018-09-10T13:43:00.473Z,60
2018-09-10T13:44:00.421Z,55
2018-09-10T13:45:00.420Z,55
2018-09-10T13:46:00.400Z,55
2018-09-10T13:47:08.625Z,55
2018-09-10T13:48:00.400Z,55
2018-09-10T13:49:00.450Z,55
2018-09-10T13:50:00.417Z,55
2018-09-10T13:51:00.378Z,55
2018-09-10T13:52:00.465Z,55
2018-09-10T13:53:00.849Z,55
2018-09-10T13:54:00.503Z,30
2018-09-10T13:55:00.456Z,25
2018-09-10T13:56:00.516Z,55
2018-09-10T13:57:00.468Z,40
2018-09-10T13:58:00.395Z,40
2018-09-10T13:59:00.756Z,30
2018-09-10T14:00:00.513Z,30
2018-09-10T14:01:00.454Z,25
2018-09-10T14:02:00.434Z,30
2018-09-10T14:03:00.458Z,20
2018-09-10T14:04:00.508Z,35
2018-09-10T14:05:00.790Z,20
2018-09-10T14:06:00.460Z,20
2018-09-10T14:07:00.528Z,15
2018-09-10T14:08:00.487Z,15
2018-09-10T14:09:00.486Z,15
2018-09-10T14:10:00.491Z,15
2018-09-10T14:11:00.968Z,20
2018-09-10T14:12:00.668Z,20
2018-09-10T14:13:00.498Z,15
2018-09-10T14:14:00.510Z,20
2018-09-10T14:15:00.579Z,20
2018-09-10T14:16:00.511Z,20
2018-09-10T14:17:00.896Z,20
2018-09-10T14:24:28.224Z,20
2018-09-10T14:24:40.668Z,20
2018-09-10T14:25:40.524Z,20
2018-09-10T14:26:40.544Z,35
2018-09-10T14:27:40.515Z,35
2018-09-10T14:28:40.525Z,35
2018-09-10T14:29:40.906Z,30
2018-09-10T14:30:40.580Z,20
2018-09-10T14:31:40.546Z,30
2018-09-10T14:32:40.514Z,30
2018-09-10T14:33:40.534Z,30
2018-09-10T14:34:40.674Z,35
2018-09-10T14:35:40.803Z,35
2018-09-10T14:36:40.538Z,40
2018-09-10T14:37:40.480Z,45
2018-09-10T14:38:40.527Z,45
2018-09-10T14:39:40.636Z,45
2018-09-10T14:40:40.621Z,40
2018-09-10T14:41:40.954Z,35
2018-09-10T14:42:40.513Z,35
2018-09-10T14:43:40.515Z,40
2018-09-10T14:44:40.611Z,40
2018-09-10T14:45:40.652Z,35
2018-09-10T14:46:40.644Z,35
2018-09-10T14:47:40.916Z,35
2018-09-10T14:48:40.591Z,35
2018-09-10T14:49:40.599Z,35
2018-09-10T14:50:40.706Z,35
2018-09-10T14:51:40.589Z,35
2018-09-10T14:52:40.616Z,30
2018-09-10T14:53:41.927Z,30
2018-09-10T14:54:40.567Z,30
2018-09-10T14:55:40.543Z,30
2018-09-10T14:56:40.507Z,30
2018-09-10T14:57:40.591Z,30
2018-09-10T14:58:40.683Z,30
2018-09-10T14:59:41.923Z,30
2018-09-10T15:00:40.627Z,30
2018-09-10T15:01:40.584Z,35
2018-09-10T15:02:40.692Z,30
2018-09-10T15:03:40.551Z,25
2018-09-10T15:04:40.565Z,20
2018-09-10T15:05:40.662Z,20
2018-09-10T15:06:40.566Z,20
2018-09-10T15:07:40.551Z,25
2018-09-10T15:08:40.595Z,25
2018-09-10T15:09:41.243Z,25
2018-09-10T15:10:40.558Z,25
2018-09-10T15:11:40.669Z,25
2018-09-10T15:12:40.652Z,20
2018-09-10T15:13:40.652Z,20
2018-09-10T15:14:40.741Z,20
2018-09-10T15:15:42.369Z,20
2018-09-10T15:16:40.713Z,20
2018-09-10T15:17:40.661Z,20
2018-09-10T15:18:40.875Z,20
2018-09-10T15:19:41.011Z,15
2018-09-10T15:20:40.804Z,15
2018-09-10T15:21:40.749Z,15
2018-09-10T15:22:40.919Z,15
2018-09-10T15:23:40.546Z,15
2018-09-10T15:24:40.584Z,15
2018-09-10T15:25:40.596Z,15
2018-09-10T15:26:40.562Z,15
2018-09-10T15:27:40.582Z,15
2018-09-10T15:28:40.851Z,15
2018-09-10T15:29:40.717Z,15
2018-09-10T15:30:40.871Z,15